COMET47 EGDM-EGDM

Flight info

Callsign COMET47
Flight time 0h 9m
Altitude 5000
Route VLN STAY01/0100 VLN
Aircraft P8/M-SDE2E3FGHIRWXY/LB2

Departure

Time 2026-04-30 21:02
Airport MoD Boscombe Down (EGDM)

Arrival

Time 2026-04-30 21:11
Airport MoD Boscombe Down (EGDM)
Time Latitude Longitude Altitude Speed Heading
2026-04-30 20:58 51.05437 -2.66217 5141 ft 204 kts 73°
2026-04-30 20:58 51.05733 -2.64782 5137 ft 203 kts 79°
2026-04-30 20:58 51.06097 -2.62605 5129 ft 204 kts 80°
2026-04-30 20:58 51.06449 -2.60420 5125 ft 205 kts 80°
2026-04-30 20:59 51.07589 -2.56290 5149 ft 212 kts 60°
2026-04-30 20:59 51.08438 -2.54302 5132 ft 214 kts 60°
2026-04-30 21:00 51.10381 -2.49664 5139 ft 226 kts 65°
2026-04-30 21:00 51.10495 -2.45316 5128 ft 240 kts 104°
2026-04-30 21:01 51.10014 -2.40352 5111 ft 215 kts 101°
2026-04-30 21:01 51.09856 -2.38003 5117 ft 210 kts 99°
2026-04-30 21:01 51.09624 -2.33372 5147 ft 210 kts 98°
2026-04-30 21:02 51.09535 -2.31066 5147 ft 207 kts 97°
2026-04-30 21:02 51.09455 -2.28752 5147 ft 211 kts 97°
2026-04-30 21:02 51.09381 -2.26403 5140 ft 214 kts 97°
2026-04-30 21:02 51.09312 -2.24041 5134 ft 214 kts 97°
2026-04-30 21:03 51.09248 -2.21656 4996 ft 218 kts 97°
2026-04-30 21:03 51.09187 -2.19266 4773 ft 220 kts 96°
2026-04-30 21:03 51.09128 -2.16860 4596 ft 208 kts 96°
2026-04-30 21:03 51.09073 -2.14623 4445 ft 197 kts 97°
2026-04-30 21:04 51.09020 -2.12513 4343 ft 191 kts 97°
2026-04-30 21:04 51.08965 -2.10360 4276 ft 194 kts 97°
2026-04-30 21:04 51.08000 -2.06662 4168 ft 185 kts 140°
2026-04-30 21:05 51.07018 -2.05328 4103 ft 183 kts 142°
2026-04-30 21:05 51.06075 -2.04085 4021 ft 170 kts 142°
2026-04-30 21:05 51.05202 -2.02935 3948 ft 157 kts 142°
2026-04-30 21:05 51.04373 -2.01841 3819 ft 151 kts 142°
2026-04-30 21:06 51.03566 -2.00771 3666 ft 152 kts 139°
2026-04-30 21:06 51.03125 -1.99241 3517 ft 161 kts 96°
2026-04-30 21:06 51.03514 -1.97548 3383 ft 173 kts 55°
2026-04-30 21:06 51.04299 -1.96092 3231 ft 175 kts 56°
2026-04-30 21:07 51.05071 -1.94615 3071 ft 173 kts 57°
2026-04-30 21:07 51.05837 -1.93155 2904 ft 170 kts 57°
2026-04-30 21:07 51.06588 -1.91726 2717 ft 166 kts 58°
2026-04-30 21:07 51.07321 -1.90339 2567 ft 162 kts 58°
2026-04-30 21:08 51.08013 -1.89030 2396 ft 149 kts 59°
2026-04-30 21:08 51.08661 -1.87804 2217 ft 138 kts 61°
2026-04-30 21:08 51.09251 -1.86688 2196 ft 130 kts 62°
2026-04-30 21:08 51.09840 -1.85563 2232 ft 135 kts 60°
2026-04-30 21:09 51.10443 -1.84403 2106 ft 139 kts 61°
2026-04-30 21:09 51.11072 -1.83169 1959 ft 149 kts 59°
2026-04-30 21:09 51.11724 -1.81952 1647 ft 140 kts 58°
2026-04-30 21:09 51.12306 -1.80865 1376 ft 130 kts 54°
2026-04-30 21:10 51.12879 -1.79795 1106 ft 125 kts 52°
2026-04-30 21:10 51.13421 -1.78750 854 ft 122 kts 50°
2026-04-30 21:10 51.13970 -1.77704 628 ft 123 kts 48°
2026-04-30 21:10 51.14513 -1.76661 421 ft 122 kts 48°
2026-04-30 21:11 51.15018 -1.75704 398 ft 102 kts 50°
2026-04-30 21:11 51.15371 -1.75032 393 ft 50 kts 51°
2026-04-30 21:11 51.15581 -1.74625 391 ft 46 kts 50°
2026-04-30 21:11 51.15774 -1.74259 394 ft 41 kts 51°
2026-04-30 21:12 51.15951 -1.73920 388 ft 39 kts 49°
2026-04-30 21:12 51.16117 -1.73606 390 ft 35 kts 51°
2026-04-30 21:12 51.16248 -1.73448 390 ft 20 kts 356°
2026-04-30 21:12 51.16330 -1.73613 387 ft 21 kts 287°
2026-04-30 21:13 51.16370 -1.73829 392 ft 20 kts 286°
2026-04-30 21:13 51.16409 -1.74037 398 ft 19 kts 287°
2026-04-30 21:13 51.16443 -1.74231 404 ft 9 kts 284°
2026-04-30 21:13 51.16444 -1.74238 405 ft 0 kts 283°
2026-04-30 21:14 51.16450 -1.74276 409 ft 8 kts 284°
2026-04-30 21:14 51.16439 -1.74389 408 ft 12 kts 232°
2026-04-30 21:14 51.16377 -1.74368 407 ft 3 kts 117°
2026-04-30 21:14 51.16377 -1.74367 407 ft 0 kts 107°